Time;durP1;ratioP1;P1;durP2;ratioP2;P2;SDS_P1;SDS_P2;PMS_P1;PMS_P2;Temp;Humidity;BMP_temperature;BMP_pressure;BME280_temperature;BME280_humidity;BME280_pressure;Samples;Min_cycle;Max_cycle;Signal;HPM_P1;HPM_P2
2021/05/14 00:02:18;;;;;;;31.07;24.07;;;12.60;99.90;;;;;;4962062;28;20219;-79
2021/05/14 00:05:04;;;;;;;30.93;23.90;;;12.60;99.90;;;;;;4968112;28;20242;-79
2021/05/14 00:07:49;;;;;;;32.93;24.60;;;12.60;99.90;;;;;;4958069;28;20253;-78
2021/05/14 00:10:37;;;;;;;33.67;26.30;;;12.60;99.90;;;;;;4970462;28;20242;-79
2021/05/14 00:13:23;;;;;;;32.10;25.33;;;12.60;99.90;;;;;;4967818;28;20218;-79
2021/05/14 00:16:09;;;;;;;29.30;23.47;;;12.60;99.90;;;;;;4969200;28;20308;-79
2021/05/14 00:18:54;;;;;;;33.47;25.00;;;12.60;99.90;;;;;;4963985;28;20219;-79
2021/05/14 00:21:39;;;;;;;34.17;23.43;;;12.60;99.90;;;;;;4974243;28;20255;-78
2021/05/14 00:24:23;;;;;;;31.90;24.90;;;12.70;99.90;;;;;;4979786;28;20227;-79
2021/05/14 00:27:09;;;;;;;31.33;23.33;;;12.60;99.90;;;;;;4968306;28;20213;-79
2021/05/14 00:29:55;;;;;;;37.27;26.30;;;12.80;99.90;;;;;;4969784;28;20257;-79
2021/05/14 00:32:40;;;;;;;33.23;24.50;;;12.70;99.90;;;;;;4970431;28;20210;-79
2021/05/14 00:35:25;;;;;;;35.13;25.03;;;12.70;99.90;;;;;;4976299;28;20291;-79
2021/05/14 00:38:14;;;;;;;31.93;24.00;;;12.70;99.90;;;;;;4974930;28;20299;-79
2021/05/14 00:40:59;;;;;;;33.20;24.80;;;12.70;99.90;;;;;;4968023;28;20789;-79
2021/05/14 00:43:44;;;;;;;34.40;24.53;;;12.70;99.90;;;;;;4976675;28;20253;-78
2021/05/14 00:46:29;;;;;;;33.43;24.50;;;12.70;99.90;;;;;;4965698;28;20215;-80
2021/05/14 00:49:13;;;;;;;33.60;25.10;;;12.70;99.90;;;;;;4978796;28;20206;-79
2021/05/14 00:52:00;;;;;;;29.57;23.90;;;12.70;99.90;;;;;;4984365;28;20251;-80
2021/05/14 00:54:46;;;;;;;30.77;22.67;;;12.70;99.90;;;;;;4998476;28;20241;-80
2021/05/14 00:57:32;;;;;;;30.00;23.23;;;12.70;99.90;;;;;;4996340;28;20691;-78
2021/05/14 01:00:19;;;;;;;30.37;24.27;;;12.70;99.90;;;;;;5000576;28;20292;-80
2021/05/14 01:03:04;;;;;;;33.53;24.77;;;12.70;99.90;;;;;;4983964;28;20226;-79
2021/05/14 01:05:50;;;;;;;35.53;25.97;;;12.70;99.90;;;;;;4974289;28;20240;-79
2021/05/14 01:08:36;;;;;;;33.33;25.30;;;12.60;99.90;;;;;;4971481;28;20823;-79
2021/05/14 01:11:21;;;;;;;33.40;25.80;;;12.60;99.90;;;;;;4972894;28;20318;-79
2021/05/14 01:14:06;;;;;;;32.50;24.03;;;12.60;99.90;;;;;;4987963;28;20225;-78
2021/05/14 01:16:52;;;;;;;33.47;24.30;;;12.50;99.90;;;;;;4977067;28;20699;-79
2021/05/14 01:19:37;;;;;;;32.83;23.67;;;12.50;99.90;;;;;;4985208;28;20726;-79
2021/05/14 01:22:27;;;;;;;31.07;24.13;;;12.40;99.90;;;;;;4991310;28;20606;-79
2021/05/14 01:25:13;;;;;;;33.57;22.70;;;12.30;99.90;;;;;;4978029;28;20626;-79
2021/05/14 01:27:58;;;;;;;32.10;24.90;;;12.30;99.90;;;;;;4987060;28;20251;-78
2021/05/14 01:30:43;;;;;;;36.13;25.47;;;12.20;99.90;;;;;;4985373;28;20269;-78
2021/05/14 01:33:28;;;;;;;34.37;25.17;;;12.10;99.90;;;;;;4975901;28;20217;-78
2021/05/14 01:36:13;;;;;;;36.67;28.50;;;12.10;99.90;;;;;;4984538;28;20229;-78
2021/05/14 01:39:06;;;;;;;37.50;28.33;;;12.00;99.90;;;;;;4996080;28;20224;-79
2021/05/14 01:41:52;;;;;;;38.10;27.77;;;12.00;99.90;;;;;;4989652;28;20202;-80
2021/05/14 01:44:37;;;;;;;39.07;27.20;;;11.90;99.90;;;;;;4967588;28;20223;-79
2021/05/14 01:47:21;;;;;;;39.93;27.20;;;11.90;99.90;;;;;;4981646;28;20348;-80
2021/05/14 01:50:08;;;;;;;39.83;27.60;;;11.80;99.90;;;;;;4963521;28;20302;-80
2021/05/14 01:52:52;;;;;;;43.33;28.00;;;11.80;99.90;;;;;;4968701;28;20213;-79
2021/05/14 01:55:39;;;;;;;47.07;31.77;;;11.70;99.90;;;;;;4966651;28;20734;-80
2021/05/14 01:58:24;;;;;;;55.53;34.93;;;11.60;99.90;;;;;;4974292;28;20240;-79
2021/05/14 02:01:09;;;;;;;58.47;36.30;;;11.70;99.90;;;;;;4971001;28;20825;-79
2021/05/14 02:03:55;;;;;;;66.37;38.07;;;11.60;99.90;;;;;;4971633;28;20200;-78
2021/05/14 02:06:40;;;;;;;69.00;39.37;;;11.60;99.90;;;;;;4976126;28;20210;-79
2021/05/14 02:09:25;;;;;;;65.47;38.37;;;11.70;99.90;;;;;;4964291;28;20254;-78
2021/05/14 02:12:11;;;;;;;73.87;40.30;;;11.60;99.90;;;;;;4970932;28;20795;-78
2021/05/14 02:14:56;;;;;;;77.53;40.60;;;11.70;99.90;;;;;;4977989;28;20295;-79
2021/05/14 02:17:41;;;;;;;76.17;42.67;;;11.70;99.90;;;;;;4966653;28;20255;-80
2021/05/14 02:20:27;;;;;;;74.33;40.73;;;11.70;99.90;;;;;;4976013;28;20222;-78
2021/05/14 02:23:12;;;;;;;76.77;39.53;;;11.70;99.90;;;;;;4972343;28;20259;-79
2021/05/14 02:25:57;;;;;;;73.43;39.17;;;11.80;99.90;;;;;;4968492;28;20277;-78
2021/05/14 02:28:43;;;;;;;68.13;38.33;;;11.80;99.90;;;;;;4981983;28;20213;-79
2021/05/14 02:31:28;;;;;;;66.60;38.80;;;11.80;99.90;;;;;;4982747;28;20230;-79
2021/05/14 02:34:13;;;;;;;67.23;36.43;;;11.70;99.90;;;;;;4975724;28;20218;-78
2021/05/14 02:36:58;;;;;;;67.43;38.03;;;11.70;99.90;;;;;;4972792;28;20213;-78
2021/05/14 02:39:44;;;;;;;64.77;38.33;;;11.70;99.90;;;;;;4970762;28;20258;-78
2021/05/14 02:42:29;;;;;;;56.13;33.87;;;11.70;99.90;;;;;;4980694;28;20700;-78
2021/05/14 02:45:16;;;;;;;62.67;36.23;;;11.60;99.90;;;;;;4983180;28;20213;-79
2021/05/14 02:48:00;;;;;;;60.67;35.77;;;11.60;99.90;;;;;;4978932;28;20211;-78
2021/05/14 02:50:45;;;;;;;65.67;38.93;;;11.50;99.90;;;;;;4984264;28;20232;-78
2021/05/14 02:53:31;;;;;;;64.23;36.10;;;11.50;99.90;;;;;;4982883;28;20218;-79
2021/05/14 02:56:17;;;;;;;65.17;37.60;;;11.50;99.90;;;;;;4976523;28;20868;-78
2021/05/14 02:59:03;;;;;;;63.70;35.27;;;11.40;99.90;;;;;;4981280;28;20248;-78
2021/05/14 03:01:48;;;;;;;61.07;33.27;;;11.40;99.90;;;;;;4975487;28;20243;-78
2021/05/14 03:04:34;;;;;;;56.50;32.57;;;11.30;99.90;;;;;;4978139;28;20810;-79
2021/05/14 03:07:20;;;;;;;51.77;30.63;;;11.30;99.90;;;;;;4986729;28;20220;-79
2021/05/14 03:10:06;;;;;;;58.87;32.43;;;11.20;99.90;;;;;;4984657;28;20264;-77
2021/05/14 03:12:51;;;;;;;56.53;32.90;;;11.20;99.90;;;;;;4979876;28;20260;-79
2021/05/14 03:15:36;;;;;;;59.73;32.80;;;11.10;99.90;;;;;;4985078;28;20775;-79
2021/05/14 03:18:22;;;;;;;61.57;35.53;;;11.10;99.90;;;;;;4984410;28;20210;-79
2021/05/14 03:21:06;;;;;;;68.30;36.07;;;11.00;99.90;;;;;;4967838;28;20261;-79
2021/05/14 03:23:54;;;;;;;69.00;35.80;;;11.00;99.90;;;;;;4979241;28;20225;-79
2021/05/14 03:26:41;;;;;;;74.77;37.13;;;10.90;99.90;;;;;;4963024;28;20218;-78
2021/05/14 03:29:25;;;;;;;86.47;39.87;;;10.90;99.90;;;;;;4971677;28;20204;-79
2021/05/14 03:32:10;;;;;;;106.87;44.47;;;10.90;99.90;;;;;;4969315;28;20214;-78
2021/05/14 03:34:57;;;;;;;96.17;43.17;;;10.90;99.90;;;;;;4977545;28;20216;-79
2021/05/14 03:37:42;;;;;;;110.13;47.07;;;10.90;99.90;;;;;;4981479;28;20221;-78
2021/05/14 03:40:35;;;;;;;120.37;47.07;;;11.00;99.90;;;;;;4971704;28;20305;-79
2021/05/14 03:43:23;;;;;;;132.03;50.83;;;11.00;99.90;;;;;;4975758;28;20229;-79
2021/05/14 03:46:07;;;;;;;134.40;52.90;;;11.00;99.90;;;;;;4971243;28;20283;-79
2021/05/14 03:48:52;;;;;;;144.00;54.60;;;11.10;99.90;;;;;;4966920;28;20217;-80
2021/05/14 03:51:39;;;;;;;145.70;53.20;;;11.10;99.90;;;;;;4976276;28;20277;-78
2021/05/14 03:54:24;;;;;;;148.20;56.27;;;11.20;99.90;;;;;;4979773;28;20702;-78
2021/05/14 03:57:09;;;;;;;135.07;50.50;;;11.20;99.90;;;;;;4970700;28;20298;-80
2021/05/14 03:59:57;;;;;;;118.77;49.17;;;11.30;99.90;;;;;;4979818;28;20232;-75
2021/05/14 04:02:41;;;;;;;126.30;49.67;;;11.30;99.90;;;;;;4968756;28;20216;-78
2021/05/14 04:05:27;;;;;;;119.60;48.37;;;11.30;99.90;;;;;;4975280;28;20285;-78
2021/05/14 04:08:13;;;;;;;112.20;46.23;;;11.30;99.90;;;;;;4972449;28;20342;-79
2021/05/14 04:11:26;;;;;;;121.07;45.30;;;11.40;99.90;;;;;;4971722;28;20251;-79
2021/05/14 04:14:30;;;;;;;119.77;46.40;;;11.40;99.90;;;;;;4964942;28;20651;-79
2021/05/14 04:17:15;;;;;;;126.80;48.47;;;11.40;99.90;;;;;;4963294;28;20227;-79
2021/05/14 04:20:00;;;;;;;114.00;45.63;;;11.50;99.90;;;;;;5029708;23;20255;-80
2021/05/14 04:22:45;;;;;;;112.93;45.63;;;11.50;99.90;;;;;;5030360;28;20250;-79
2021/05/14 04:25:36;;;;;;;109.77;44.90;;;11.50;99.90;;;;;;5029126;28;20280;-79
2021/05/14 04:28:21;;;;;;;106.50;45.20;;;11.60;99.90;;;;;;5032607;28;20741;-79
2021/05/14 04:31:06;;;;;;;109.97;46.83;;;11.80;99.90;;;;;;5033534;28;20314;-79
2021/05/14 04:33:51;;;;;;;109.60;45.00;;;11.60;99.90;;;;;;5033697;28;20228;-79
2021/05/14 04:36:35;;;;;;;96.07;45.00;;;11.70;99.90;;;;;;5035381;28;20207;-79
2021/05/14 04:39:20;;;;;;;93.33;44.10;;;11.70;99.90;;;;;;5030987;28;20260;-80
2021/05/14 04:42:06;;;;;;;95.67;42.07;;;11.80;99.90;;;;;;5032611;28;20616;-79
2021/05/14 04:44:53;;;;;;;94.53;40.67;;;11.70;99.90;;;;;;5033515;28;20295;-80
2021/05/14 04:47:38;;;;;;;89.77;41.00;;;11.70;99.90;;;;;;5028395;28;20642;-79
2021/05/14 04:50:23;;;;;;;89.00;41.27;;;11.70;99.90;;;;;;5035030;28;20223;-79
2021/05/14 04:53:11;;;;;;;96.93;41.97;;;11.70;99.90;;;;;;5034339;28;20532;-80
2021/05/14 04:55:56;;;;;;;96.77;41.90;;;11.70;99.90;;;;;;5035397;28;20215;-80
2021/05/14 04:58:42;;;;;;;96.03;41.53;;;11.80;99.90;;;;;;5032860;28;20243;-79
2021/05/14 05:01:27;;;;;;;98.47;44.40;;;11.70;99.90;;;;;;5035892;28;20234;-80
2021/05/14 05:04:13;;;;;;;94.77;44.53;;;11.80;99.90;;;;;;5036550;28;20699;-80
2021/05/14 05:06:58;;;;;;;98.13;45.50;;;11.80;99.90;;;;;;5035024;28;20258;-80
2021/05/14 05:09:43;;;;;;;91.70;40.43;;;11.80;99.90;;;;;;5036335;28;20273;-79
2021/05/14 05:12:27;;;;;;;92.47;40.50;;;11.90;99.90;;;;;;5036796;28;20210;-80
2021/05/14 05:15:14;;;;;;;91.13;41.23;;;11.90;99.90;;;;;;5033162;28;20239;-80
2021/05/14 05:17:59;;;;;;;88.77;41.67;;;11.90;99.90;;;;;;5035723;28;20315;-80
2021/05/14 05:20:44;;;;;;;103.43;42.87;;;11.90;99.90;;;;;;5035382;28;20251;-80
2021/05/14 05:23:29;;;;;;;88.37;41.27;;;12.00;99.90;;;;;;5037107;28;20209;-80
2021/05/14 05:26:13;;;;;;;90.73;41.73;;;12.00;99.90;;;;;;5031042;28;20212;-80
2021/05/14 05:28:58;;;;;;;98.43;40.13;;;12.00;99.90;;;;;;5036078;28;20585;-80
2021/05/14 05:31:44;;;;;;;89.87;38.70;;;12.00;99.90;;;;;;5036284;28;20200;-80
2021/05/14 05:34:29;;;;;;;90.93;44.00;;;12.10;99.90;;;;;;5034772;28;20615;-80
2021/05/14 05:37:14;;;;;;;88.10;40.53;;;12.10;99.90;;;;;;5032919;28;20209;-80
2021/05/14 05:39:58;;;;;;;83.80;38.03;;;12.10;99.90;;;;;;5030912;28;20226;-80
2021/05/14 05:42:43;;;;;;;85.57;41.60;;;12.20;99.90;;;;;;5022166;28;20703;-79
2021/05/14 05:45:28;;;;;;;90.57;40.47;;;12.20;99.90;;;;;;5028690;28;20207;-79
2021/05/14 05:48:15;;;;;;;90.37;42.00;;;12.20;99.90;;;;;;5033805;28;20199;-80
2021/05/14 05:51:00;;;;;;;86.37;41.90;;;12.20;99.90;;;;;;5025499;28;20216;-79
2021/05/14 05:53:45;;;;;;;87.23;41.03;;;12.30;99.90;;;;;;5029382;28;20691;-80
2021/05/14 05:56:30;;;;;;;90.77;42.87;;;12.40;99.90;;;;;;5031124;28;20208;-79
2021/05/14 05:59:16;;;;;;;95.83;43.97;;;12.40;99.90;;;;;;5030575;28;20688;-80
2021/05/14 06:02:01;;;;;;;86.60;42.27;;;12.40;99.90;;;;;;5030938;28;20222;-80
2021/05/14 06:04:46;;;;;;;79.97;41.43;;;12.50;99.90;;;;;;5030821;28;20213;-80
2021/05/14 06:07:31;;;;;;;79.93;39.83;;;12.60;99.90;;;;;;5036596;28;20566;-80
2021/05/14 06:10:16;;;;;;;76.50;40.37;;;12.60;99.90;;;;;;5033474;28;20256;-80
2021/05/14 06:13:01;;;;;;;72.67;38.43;;;12.70;99.90;;;;;;5030627;28;20228;-80
2021/05/14 06:15:46;;;;;;;71.97;40.40;;;12.80;99.90;;;;;;5036691;28;20242;-80
2021/05/14 06:18:35;;;;;;;68.23;37.07;;;12.90;99.90;;;;;;5034472;28;20219;-80
2021/05/14 06:21:21;;;;;;;68.00;37.23;;;13.00;99.90;;;;;;5038913;28;20232;-80
2021/05/14 06:24:06;;;;;;;60.17;33.47;;;13.10;99.90;;;;;;5036704;28;20224;-80
2021/05/14 06:26:51;;;;;;;62.90;33.57;;;13.20;99.90;;;;;;5037398;28;20228;-80
2021/05/14 06:29:36;;;;;;;62.87;37.07;;;13.30;99.90;;;;;;5036736;28;20228;-80
2021/05/14 06:32:21;;;;;;;57.50;31.87;;;13.30;99.90;;;;;;5032960;28;20608;-80
2021/05/14 06:35:07;;;;;;;50.67;31.90;;;13.50;99.90;;;;;;5038727;28;20227;-80
2021/05/14 06:37:52;;;;;;;47.77;29.20;;;13.60;99.90;;;;;;5033965;28;20779;-80
2021/05/14 06:40:38;;;;;;;47.00;28.60;;;13.70;99.90;;;;;;5037515;28;20225;-80
2021/05/14 06:43:23;;;;;;;46.57;30.10;;;13.80;99.90;;;;;;5039842;28;20215;-80
2021/05/14 06:46:08;;;;;;;41.40;28.07;;;13.80;99.90;;;;;;5033287;28;20229;-80
2021/05/14 06:48:54;;;;;;;43.77;28.87;;;13.90;99.90;;;;;;5037516;28;20263;-80
2021/05/14 06:51:39;;;;;;;39.53;27.50;;;14.00;99.90;;;;;;5037572;28;20202;-81
2021/05/14 06:54:25;;;;;;;39.07;25.97;;;14.10;99.90;;;;;;5038620;28;20205;-80
2021/05/14 06:57:10;;;;;;;44.67;29.20;;;14.10;99.90;;;;;;5031522;28;20301;-80
2021/05/14 06:59:55;;;;;;;38.23;27.80;;;14.20;99.90;;;;;;5037548;28;20227;-80
2021/05/14 07:02:39;;;;;;;38.40;27.30;;;14.30;99.90;;;;;;5033864;28;20279;-80
2021/05/14 07:05:24;;;;;;;37.43;26.53;;;14.40;99.90;;;;;;5035541;28;20779;-80
2021/05/14 07:08:09;;;;;;;37.87;26.53;;;14.40;99.90;;;;;;5033234;28;20220;-80
2021/05/14 07:10:56;;;;;;;37.90;27.93;;;14.50;99.90;;;;;;5033997;28;20206;-80
2021/05/14 07:13:41;;;;;;;38.03;25.13;;;14.60;99.90;;;;;;5034526;28;20214;-80
2021/05/14 07:16:27;;;;;;;36.97;24.40;;;14.70;99.90;;;;;;5033093;28;20202;-80
2021/05/14 07:19:14;;;;;;;34.40;24.53;;;14.90;99.90;;;;;;5040000;28;20283;-80
2021/05/14 07:21:59;;;;;;;36.77;25.47;;;14.90;99.90;;;;;;5036699;28;20211;-80
2021/05/14 07:24:44;;;;;;;34.90;25.10;;;15.00;99.90;;;;;;5031531;28;20638;-80
2021/05/14 07:27:30;;;;;;;37.47;26.87;;;15.00;99.90;;;;;;5033865;28;20231;-80
2021/05/14 07:30:16;;;;;;;38.40;28.13;;;15.10;99.90;;;;;;5035426;28;20275;-80
2021/05/14 07:33:00;;;;;;;33.60;25.33;;;15.20;99.90;;;;;;5034299;28;20214;-81
2021/05/14 07:35:45;;;;;;;37.80;26.37;;;15.30;99.90;;;;;;5033273;28;20233;-80
2021/05/14 07:38:30;;;;;;;33.43;25.40;;;15.40;99.90;;;;;;5034600;28;20288;-80
2021/05/14 07:41:15;;;;;;;35.00;27.20;;;15.40;99.90;;;;;;5034716;28;20228;-80
2021/05/14 07:44:00;;;;;;;34.73;27.13;;;15.50;99.90;;;;;;5032532;28;20243;-80
2021/05/14 07:46:45;;;;;;;31.93;24.73;;;15.60;99.90;;;;;;5030292;28;20305;-80
2021/05/14 07:49:33;;;;;;;31.03;24.03;;;15.60;99.90;;;;;;5033590;28;20582;-80
2021/05/14 07:52:18;;;;;;;29.87;23.07;;;15.70;99.90;;;;;;5032941;28;20262;-81
2021/05/14 07:55:04;;;;;;;29.20;23.17;;;15.70;99.90;;;;;;5035553;28;20207;-81
2021/05/14 07:57:49;;;;;;;35.10;25.57;;;15.80;99.90;;;;;;5033134;28;20215;-81
2021/05/14 08:00:34;;;;;;;31.93;22.70;;;15.80;99.90;;;;;;5027790;28;20219;-81
2021/05/14 08:03:19;;;;;;;31.37;24.53;;;15.80;99.90;;;;;;5037514;28;20253;-80
2021/05/14 08:06:04;;;;;;;32.10;23.80;;;15.90;99.90;;;;;;5038100;28;20745;-81
2021/05/14 08:08:49;;;;;;;28.43;21.73;;;15.90;99.90;;;;;;5028722;28;20246;-81
2021/05/14 08:11:34;;;;;;;28.23;22.13;;;16.00;99.90;;;;;;5039640;28;20222;-80
2021/05/14 08:14:23;;;;;;;27.40;21.23;;;16.10;99.90;;;;;;5040060;28;20215;-81
2021/05/14 08:17:08;;;;;;;30.40;23.23;;;16.20;99.90;;;;;;5027597;28;20212;-81
2021/05/14 08:19:53;;;;;;;26.40;21.50;;;16.30;99.90;;;;;;5039345;28;20285;-80
2021/05/14 08:22:41;;;;;;;25.90;20.43;;;16.40;99.90;;;;;;5039683;28;20287;-81
2021/05/14 08:25:26;;;;;;;25.67;19.83;;;16.50;99.90;;;;;;5038295;28;20211;-80
2021/05/14 08:28:12;;;;;;;24.77;19.63;;;16.70;99.90;;;;;;5039724;28;20208;-80
2021/05/14 08:31:01;;;;;;;24.37;19.17;;;16.80;99.90;;;;;;5039811;28;20231;-81
2021/05/14 08:33:47;;;;;;;25.00;20.27;;;16.90;99.90;;;;;;5040489;28;20726;-80
2021/05/14 08:36:32;;;;;;;23.63;19.93;;;17.00;99.90;;;;;;5041171;28;20531;-81
2021/05/14 08:39:18;;;;;;;23.43;19.93;;;17.10;99.90;;;;;;5037113;28;20772;-80
2021/05/14 08:42:05;;;;;;;24.60;19.23;;;17.30;99.90;;;;;;5036170;28;20235;-81
2021/05/14 08:44:50;;;;;;;21.03;18.73;;;17.40;99.90;;;;;;5029260;28;20233;-80
2021/05/14 08:47:36;;;;;;;22.80;18.63;;;17.50;99.90;;;;;;5033794;28;20223;-80
2021/05/14 08:50:28;;;;;;;22.50;20.10;;;17.60;99.90;;;;;;5033033;28;20232;-80
2021/05/14 08:53:13;;;;;;;22.40;18.67;;;17.80;99.90;;;;;;5031558;28;20235;-80
2021/05/14 08:55:58;;;;;;;23.10;19.10;;;17.90;99.90;;;;;;5039459;28;20214;-80
2021/05/14 08:58:43;;;;;;;21.60;19.27;;;18.10;99.90;;;;;;5035607;28;20299;-81
2021/05/14 09:01:28;;;;;;;22.67;18.27;;;18.20;99.90;;;;;;5025704;28;20209;-81
2021/05/14 09:04:16;;;;;;;21.70;16.93;;;18.30;99.90;;;;;;5035145;28;20233;-80
2021/05/14 09:07:13;;;;;;;19.70;16.77;;;18.60;99.90;;;;;;5031431;28;20714;-80
2021/05/14 09:10:08;;;;;;;18.83;16.37;;;18.60;99.90;;;;;;5026135;28;20304;-80
2021/05/14 09:12:54;;;;;;;19.67;16.90;;;18.70;99.90;;;;;;5036288;28;20206;-80
2021/05/14 09:15:41;;;;;;;21.63;18.80;;;18.70;99.90;;;;;;5025278;28;20258;-81
2021/05/14 09:18:28;;;;;;;22.73;17.97;;;19.00;99.90;;;;;;5032402;28;20213;-80
2021/05/14 09:21:18;;;;;;;21.97;17.70;;;19.20;99.90;;;;;;5034659;28;20245;-81
2021/05/14 09:24:04;;;;;;;21.70;17.90;;;19.30;99.90;;;;;;5038311;28;20213;-81
2021/05/14 09:26:49;;;;;;;20.40;16.80;;;19.50;99.90;;;;;;5024376;28;20206;-81
2021/05/14 09:29:38;;;;;;;18.17;16.00;;;19.70;99.90;;;;;;5030951;28;20228;-81
2021/05/14 09:32:24;;;;;;;17.07;14.63;;;19.90;99.90;;;;;;5042515;28;20326;-81
2021/05/14 09:35:10;;;;;;;15.63;13.60;;;20.20;99.90;;;;;;5039156;28;20688;-81
2021/05/14 09:37:54;;;;;;;16.73;14.77;;;20.60;99.90;;;;;;5041576;28;20362;-81
2021/05/14 09:40:40;;;;;;;18.10;15.67;;;21.00;99.90;;;;;;5044037;28;20277;-81
2021/05/14 09:43:26;;;;;;;18.57;15.60;;;21.50;99.90;;;;;;5047743;28;20226;-81
2021/05/14 09:46:25;;;;;;;16.80;14.83;;;22.10;99.90;;;;;;5046011;28;20202;-81
2021/05/14 09:49:11;;;;;;;16.90;14.80;;;22.80;99.90;;;;;;5045497;28;20232;-81
2021/05/14 09:51:58;;;;;;;15.00;13.43;;;23.30;99.90;;;;;;5040844;28;20224;-82
2021/05/14 09:54:43;;;;;;;17.60;13.77;;;23.80;99.90;;;;;;5039247;28;20207;-81
2021/05/14 09:57:34;;;;;;;15.67;14.07;;;24.30;99.90;;;;;;5039110;28;20233;-81
2021/05/14 10:00:19;;;;;;;13.67;11.17;;;24.70;99.90;;;;;;5038331;28;20231;-79
2021/05/14 10:03:06;;;;;;;14.73;12.43;;;25.10;99.90;;;;;;5038927;28;20201;-81
2021/05/14 10:05:52;;;;;;;16.13;14.43;;;25.40;98.70;;;;;;5040067;28;20206;-81
2021/05/14 10:08:38;;;;;;;16.00;13.90;;;25.70;98.80;;;;;;5027326;28;20204;-81
2021/05/14 10:11:24;;;;;;;17.15;14.95;;;25.90;95.80;;;;;;5039860;28;20569;-81
2021/05/14 10:14:11;;;;;;;18.48;16.48;;;26.20;97.40;;;;;;5041258;28;20694;-81
2021/05/14 10:16:56;;;;;;;16.85;14.45;;;26.50;95.20;;;;;;5039090;28;20249;-81
2021/05/14 10:19:44;;;;;;;15.15;13.55;;;26.90;92.80;;;;;;5031958;28;20248;-82
2021/05/14 10:22:31;;;;;;;16.50;14.48;;;27.20;95.10;;;;;;5029882;28;20250;-81
2021/05/14 10:25:57;;;;;;;15.63;14.00;;;27.50;93.50;;;;;;5040228;28;20272;-81
2021/05/14 10:28:47;;;;;;;16.50;14.77;;;27.90;92.10;;;;;;5020969;28;20265;-82
2021/05/14 10:31:43;;;;;;;16.83;14.27;;;28.40;85.40;;;;;;5019892;28;20268;-82
2021/05/14 10:34:34;;;;;;;16.30;14.27;;;28.90;86.00;;;;;;5033330;28;20640;-82
2021/05/14 10:37:44;;;;;;;17.17;15.48;;;29.40;86.10;;;;;;5030568;28;20263;-82
2021/05/14 10:40:42;;;;;;;16.20;14.50;;;30.00;84.00;;;;;;5034183;28;20648;-82
2021/05/14 10:43:57;;;;;;;18.70;16.80;;;30.40;82.70;;;;;;5027946;28;20328;-79
2021/05/14 10:46:44;;;;;;;17.25;15.50;;;31.00;74.20;;;;;;5028347;28;20211;-79
2021/05/14 10:49:40;;;;;;;16.65;14.93;;;31.60;72.60;;;;;;5029984;28;20234;-79
2021/05/14 10:52:27;;;;;;;16.75;15.02;;;32.00;68.00;;;;;;5033082;28;20724;-79
2021/05/14 10:55:30;;;;;;;16.05;14.45;;;32.20;66.40;;;;;;5029568;28;20259;-79
2021/05/14 10:58:43;;;;;;;16.90;15.20;;;32.40;69.10;;;;;;5027908;28;20235;-79
2021/05/14 11:01:35;;;;;;;16.45;14.32;;;32.70;69.80;;;;;;5029027;28;20211;-79
2021/05/14 11:04:43;;;;;;;15.23;13.73;;;33.00;66.10;;;;;;5029610;28;20216;-79
2021/05/14 11:07:40;;;;;;;15.02;13.52;;;33.50;67.00;;;;;;5027351;28;20255;-79
2021/05/14 11:10:29;;;;;;;16.33;14.75;;;33.70;64.10;;;;;;5023659;28;20231;-79
2021/05/14 11:13:41;;;;;;;14.32;12.90;;;33.70;62.00;;;;;;5036877;28;20239;-79
2021/05/14 11:16:34;;;;;;;12.98;11.65;;;33.70;62.40;;;;;;5032384;28;20991;-82
2021/05/14 11:19:21;;;;;;;14.80;13.27;;;33.70;59.80;;;;;;5036542;28;20250;-82
2021/05/14 11:22:10;;;;;;;16.80;15.02;;;33.80;60.30;;;;;;5036818;28;20231;-82
2021/05/14 11:25:05;;;;;;;14.48;13.05;;;34.10;58.00;;;;;;5027287;28;20244;-82
2021/05/14 11:27:55;;;;;;;14.75;13.15;;;34.40;60.00;;;;;;5024266;28;20206;-82
2021/05/14 11:30:40;;;;;;;13.65;12.30;;;34.40;56.70;;;;;;5037611;28;20227;-82
2021/05/14 11:33:25;;;;;;;14.52;13.02;;;34.70;55.60;;;;;;5032092;28;20203;-79
2021/05/14 11:36:10;;;;;;;13.15;11.85;;;34.90;56.20;;;;;;5034463;28;20734;-82
2021/05/14 11:38:56;;;;;;;13.05;11.75;;;35.10;56.30;;;;;;5037776;28;20231;-81
2021/05/14 11:41:41;;;;;;;15.25;13.65;;;35.10;55.90;;;;;;5033815;28;20235;-82
2021/05/14 11:44:27;;;;;;;13.88;12.30;;;35.00;53.40;;;;;;5035242;28;20613;-82
2021/05/14 11:47:12;;;;;;;15.30;13.80;;;35.20;53.40;;;;;;5032599;28;20258;-82
2021/05/14 11:49:59;;;;;;;14.95;13.50;;;35.20;53.70;;;;;;5024542;28;20268;-82
2021/05/14 11:52:44;;;;;;;13.38;12.05;;;35.40;53.70;;;;;;5037767;28;20207;-82
2021/05/14 11:55:30;;;;;;;13.43;12.13;;;35.60;54.10;;;;;;5032100;28;20203;-82
2021/05/14 11:58:16;;;;;;;13.85;12.43;;;35.80;51.40;;;;;;5034427;28;20231;-82
2021/05/14 12:01:03;;;;;;;13.25;11.85;;;35.90;51.50;;;;;;5039611;28;20235;-81
2021/05/14 12:03:58;;;;;;;13.10;11.60;;;35.90;51.70;;;;;;5027710;28;20208;-82
2021/05/14 12:06:47;;;;;;;15.00;13.38;;;35.80;52.40;;;;;;5040226;28;20207;-81
2021/05/14 12:09:33;;;;;;;15.68;14.18;;;35.70;51.30;;;;;;5039100;28;20307;-82
2021/05/14 12:12:20;;;;;;;13.02;11.70;;;35.60;50.30;;;;;;5029337;28;20207;-82
2021/05/14 12:15:16;;;;;;;12.00;10.73;;;35.40;50.20;;;;;;5036656;28;20231;-82
2021/05/14 12:18:01;;;;;;;11.45;10.05;;;35.30;52.40;;;;;;5033803;28;20219;-81
2021/05/14 12:20:46;;;;;;;12.68;11.38;;;35.10;52.00;;;;;;5039040;28;20290;-82
2021/05/14 12:23:31;;;;;;;12.43;11.13;;;35.00;50.50;;;;;;5039600;28;20231;-82
2021/05/14 12:26:16;;;;;;;11.85;10.65;;;34.90;50.80;;;;;;5019331;28;20204;-82
2021/05/14 12:29:04;;;;;;;11.45;10.25;;;34.70;52.60;;;;;;5034807;28;20242;-81
2021/05/14 12:31:54;;;;;;;7.95;7.13;;;34.60;51.60;;;;;;5030292;28;20203;-81
2021/05/14 12:34:50;;;;;;;9.63;8.63;;;34.60;51.90;;;;;;5024364;28;20196;-81
2021/05/14 12:37:35;;;;;;;10.45;7.30;;;34.80;52.40;;;;;;5036716;28;20211;-81
2021/05/14 12:40:37;;;;;;;10.48;8.90;;;35.00;49.70;;;;;;5038983;28;20235;-83
2021/05/14 12:43:28;;;;;;;8.65;7.70;;;35.30;51.90;;;;;;5028634;28;20217;-82
2021/05/14 12:46:14;;;;;;;8.98;8.18;;;35.70;49.40;;;;;;5038959;28;20257;-82
2021/05/14 12:49:09;;;;;;;8.40;7.70;;;35.90;47.60;;;;;;5037865;28;20319;-81
2021/05/14 12:52:06;;;;;;;7.50;6.75;;;35.80;47.20;;;;;;5026848;28;20829;-81
2021/05/14 12:54:57;;;;;;;5.78;5.28;;;35.60;48.00;;;;;;5037709;28;21017;-83
2021/05/14 12:57:44;;;;;;;6.35;5.75;;;35.30;46.50;;;;;;5037774;28;20207;-81
2021/05/14 13:00:30;;;;;;;6.93;6.05;;;34.90;46.80;;;;;;5028592;28;20231;-82
2021/05/14 13:03:26;;;;;;;5.90;5.13;;;34.50;48.20;;;;;;5038971;28;20215;-81
2021/05/14 13:06:11;;;;;;;6.22;5.63;;;34.00;49.40;;;;;;5028734;28;20244;-83
2021/05/14 13:09:05;;;;;;;7.28;6.20;;;33.80;48.70;;;;;;5028369;28;20227;-80
2021/05/14 13:11:50;;;;;;;4.60;4.20;;;33.70;49.40;;;;;;5038714;28;20219;-81
2021/05/14 13:14:35;;;;;;;4.82;4.40;;;33.80;47.00;;;;;;5032030;28;20219;-82
2021/05/14 13:17:20;;;;;;;5.38;4.85;;;33.90;47.20;;;;;;5027491;28;20287;-81
2021/05/14 13:20:08;;;;;;;6.43;5.82;;;34.10;49.40;;;;;;5039095;28;20782;-82
2021/05/14 13:22:53;;;;;;;6.53;5.93;;;34.00;49.40;;;;;;5039053;28;20707;-81
2021/05/14 13:25:38;;;;;;;5.88;5.25;;;33.90;47.30;;;;;;5035066;28;20299;-81
2021/05/14 13:28:24;;;;;;;6.40;5.70;;;33.70;49.40;;;;;;5037832;28;20204;-82
2021/05/14 13:31:09;;;;;;;6.03;5.00;;;33.50;50.80;;;;;;5038669;28;20199;-81
2021/05/14 13:33:55;;;;;;;6.68;5.40;;;33.30;51.70;;;;;;5023563;28;20215;-81
2021/05/14 13:36:41;;;;;;;6.13;5.53;;;33.30;51.50;;;;;;5039395;28;20306;-82
2021/05/14 13:39:25;;;;;;;5.68;5.18;;;33.50;53.00;;;;;;5032933;28;20226;-82
2021/05/14 13:42:10;;;;;;;5.93;5.32;;;33.70;51.60;;;;;;5036535;28;20220;-80
2021/05/14 13:44:55;;;;;;;5.20;4.70;;;34.10;48.90;;;;;;5034501;28;20242;-82
2021/05/14 13:47:40;;;;;;;6.35;5.72;;;34.40;48.90;;;;;;5031601;28;20583;-82
2021/05/14 13:50:24;;;;;;;5.97;4.05;;;34.70;48.20;;;;;;5039402;28;20236;-82
2021/05/14 13:53:10;;;;;;;5.72;5.15;;;35.10;48.80;;;;;;5038249;28;20202;-82
2021/05/14 13:55:56;;;;;;;7.35;5.05;;;35.30;48.60;;;;;;5036112;28;20699;-82
2021/05/14 13:58:41;;;;;;;6.22;5.05;;;35.50;47.20;;;;;;5030883;28;20282;-81
2021/05/14 14:01:26;;;;;;;6.55;5.32;;;35.70;46.80;;;;;;5036183;28;20397;-82
2021/05/14 14:04:11;;;;;;;6.28;5.68;;;35.80;46.90;;;;;;5035508;28;20642;-82
2021/05/14 14:06:56;;;;;;;5.38;4.88;;;35.90;44.90;;;;;;5028993;28;20686;-82
2021/05/14 14:09:42;;;;;;;6.93;5.22;;;36.00;47.90;;;;;;5037508;28;20227;-84